createdAt,value
2018-07-20T00:01:36.501Z,96877.97
2018-07-20T00:04:06.376Z,96875.44
2018-07-20T00:06:36.200Z,96875.90
2018-07-20T00:09:07.708Z,96884.02
2018-07-20T00:11:36.938Z,96879.78
2018-07-20T00:14:06.458Z,96875.11
2018-07-20T00:16:36.383Z,96867.05
2018-07-20T00:19:06.325Z,96873.92
2018-07-20T00:21:36.436Z,96868.42
2018-07-20T00:24:06.445Z,96865.47
2018-07-20T00:26:36.338Z,96870.72
2018-07-20T00:29:06.818Z,96863.94
2018-07-20T00:31:36.373Z,96858.84
2018-07-20T00:34:06.534Z,96856.73
2018-07-20T00:36:36.383Z,96852.06
2018-07-20T00:39:09.387Z,96847.86
2018-07-20T00:41:39.072Z,96846.16
2018-07-20T00:44:08.331Z,96849.56
2018-07-20T00:46:37.413Z,96843.62
2018-07-20T00:49:06.964Z,96842.79
2018-07-20T00:51:36.465Z,96842.85
2018-07-20T00:54:06.775Z,96839.86
2018-07-20T00:56:36.966Z,96836.91
2018-07-20T00:59:06.920Z,96835.25
2018-07-20T01:01:36.760Z,96831.10
2018-07-20T01:04:06.649Z,96830.25
2018-07-20T01:06:37.037Z,96832.05
2018-07-20T01:09:09.237Z,96827.89
2018-07-20T01:11:38.308Z,96826.23
2018-07-20T01:14:07.712Z,96822.80
2018-07-20T01:16:37.061Z,96829.63
2018-07-20T01:19:06.881Z,96826.20
2018-07-20T01:21:37.078Z,96828.34
2018-07-20T01:24:07.107Z,96833.04
2018-07-20T01:26:37.302Z,96831.75
2018-07-20T01:29:06.864Z,96834.83
2018-07-20T01:31:36.973Z,96826.41
2018-07-20T01:34:07.372Z,96823.89
2018-07-20T01:36:36.999Z,96821.36
2018-07-20T01:39:08.302Z,96824.83
2018-07-20T01:41:37.708Z,96830.05
2018-07-20T01:44:08.212Z,96825.84
2018-07-20T01:46:37.484Z,96826.73
2018-07-20T01:49:07.371Z,96825.08
2018-07-20T01:51:37.285Z,96823.43
2018-07-20T01:54:08.022Z,96824.73
2018-07-20T01:56:37.176Z,96820.56
2018-07-20T01:59:07.435Z,96830.45
2018-07-20T02:01:37.672Z,96829.22
2018-07-20T02:04:08.324Z,96829.77
2018-07-20T02:06:37.511Z,96830.61
2018-07-20T02:09:09.427Z,96824.31
2018-07-20T02:11:38.873Z,96825.59
2018-07-20T02:14:08.047Z,96832.44
2018-07-20T02:16:37.687Z,96839.23
2018-07-20T02:19:07.999Z,96837.61
2018-07-20T02:21:37.509Z,96828.66
2018-07-20T02:24:07.505Z,96833.38
2018-07-20T02:26:37.599Z,96832.45
2018-07-20T02:29:08.064Z,96823.93
2018-07-20T02:31:37.677Z,96834.56
2018-07-20T02:34:07.917Z,96832.44
2018-07-20T02:36:37.781Z,96830.28
2018-07-20T02:39:11.459Z,96831.56
2018-07-20T02:41:41.206Z,96823.03
2018-07-20T02:44:11.089Z,96829.07
2018-07-20T02:46:40.649Z,96826.53
2018-07-20T02:49:09.874Z,96823.17
2018-07-20T02:51:38.969Z,96822.33
2018-07-20T02:54:08.323Z,96818.12
2018-07-20T02:56:38.409Z,96820.70
2018-07-20T02:59:07.915Z,96819.03
2018-07-20T03:01:38.133Z,96819.06
2018-07-20T03:04:08.019Z,96817.81
2018-07-20T03:06:38.098Z,96815.70
2018-07-20T03:09:11.114Z,96814.91
2018-07-20T03:11:40.189Z,96818.30
2018-07-20T03:14:09.824Z,96812.41
2018-07-20T03:16:39.777Z,96819.24
2018-07-20T03:19:09.315Z,96820.13
2018-07-20T03:21:39.022Z,96821.47
2018-07-20T03:24:08.278Z,96822.00
2018-07-20T03:26:38.210Z,96819.53
2018-07-20T03:29:08.509Z,96816.98
2018-07-20T03:31:38.451Z,96813.98
2018-07-20T03:34:08.237Z,96816.94
2018-07-20T03:36:38.433Z,96814.36
2018-07-20T03:39:09.394Z,96813.45
2018-07-20T03:41:38.954Z,96816.47
2018-07-20T03:44:08.790Z,96810.94
2018-07-20T03:46:38.665Z,96807.94
2018-07-20T03:49:08.668Z,96814.83
2018-07-20T03:51:38.613Z,96810.19
2018-07-20T03:54:08.481Z,96804.24
2018-07-20T03:56:38.793Z,96800.77
2018-07-20T03:59:08.353Z,96803.33
2018-07-20T04:01:38.601Z,96807.55
2018-07-20T04:04:08.632Z,96810.14
2018-07-20T04:06:38.901Z,96807.59
2018-07-20T04:09:10.289Z,96804.16
2018-07-20T04:11:39.859Z,96806.31
2018-07-20T04:14:09.065Z,96803.36
2018-07-20T04:16:39.077Z,96802.97
2018-07-20T04:19:08.871Z,96805.04
2018-07-20T04:21:38.814Z,96801.55
2018-07-20T04:24:08.757Z,96809.18
2018-07-20T04:26:38.955Z,96808.27
2018-07-20T04:29:08.870Z,96811.64
2018-07-20T04:31:38.959Z,96809.08
2018-07-20T04:34:08.874Z,96811.57
2018-07-20T04:36:38.945Z,96810.59
2018-07-20T04:39:11.177Z,96809.72
2018-07-20T04:41:41.067Z,96809.79
2018-07-20T04:44:10.499Z,96802.97
2018-07-20T04:46:40.281Z,96806.75
2018-07-20T04:49:09.530Z,96807.14
2018-07-20T04:51:39.452Z,96801.63
2018-07-20T04:54:08.985Z,96809.69
2018-07-20T04:56:39.169Z,96814.30
2018-07-20T04:59:09.183Z,96812.10
2018-07-20T05:01:39.129Z,96810.36
2018-07-20T05:04:09.057Z,96810.31
2018-07-20T05:06:39.359Z,96809.41
2018-07-20T05:09:10.579Z,96810.20
2018-07-20T05:11:40.267Z,96808.37
2018-07-20T05:14:10.242Z,96802.75
2018-07-20T05:16:39.888Z,96798.84
2018-07-20T05:19:09.457Z,96799.99
2018-07-20T05:21:39.379Z,96794.37
2018-07-20T05:24:09.609Z,96789.25
2018-07-20T05:26:39.405Z,96783.95
2018-07-20T05:29:09.439Z,96782.95
2018-07-20T05:31:39.401Z,96785.41
2018-07-20T05:34:09.479Z,96782.27
2018-07-20T05:36:39.394Z,96783.91
2018-07-20T05:39:10.783Z,96783.40
2018-07-20T05:41:40.215Z,96784.98
2018-07-20T05:44:09.636Z,96788.73
2018-07-20T05:46:39.710Z,96788.22
2018-07-20T05:49:09.862Z,96790.23
2018-07-20T05:51:39.562Z,96794.41
2018-07-20T05:54:09.632Z,96787.84
2018-07-20T05:56:40.336Z,96785.92
2018-07-20T05:59:09.706Z,96781.45
2018-07-20T06:01:40.004Z,96780.35
2018-07-20T06:04:09.713Z,96781.81
2018-07-20T06:06:40.131Z,96790.61
2018-07-20T06:09:11.669Z,96785.75
2018-07-20T06:11:40.895Z,96782.07
2018-07-20T06:14:10.243Z,96782.69
2018-07-20T06:16:39.886Z,96786.73
2018-07-20T06:19:09.806Z,96785.72
2018-07-20T06:21:39.912Z,96786.88
2018-07-20T06:24:09.963Z,96795.70
2018-07-20T06:26:39.978Z,96798.50
2018-07-20T06:29:10.277Z,96797.98
2018-07-20T06:31:40.218Z,96793.52
2018-07-20T06:34:10.162Z,96787.41
2018-07-20T06:36:40.016Z,96794.00
2018-07-20T06:39:11.595Z,96794.63
2018-07-20T06:41:41.286Z,96790.94
2018-07-20T06:44:10.605Z,96791.43
2018-07-20T06:46:40.176Z,96794.48
2018-07-20T06:49:10.221Z,96792.01
2018-07-20T06:51:40.309Z,96785.70
2018-07-20T06:54:10.320Z,96790.59
2018-07-20T06:56:40.396Z,96783.87
2018-07-20T06:59:10.515Z,96793.05
2018-07-20T07:01:40.227Z,96796.55
2018-07-20T07:04:10.362Z,96800.16
2018-07-20T07:06:40.642Z,96798.22
2018-07-20T07:09:11.190Z,96802.20
2018-07-20T07:11:41.040Z,96805.47
2018-07-20T07:14:10.469Z,96803.63
2018-07-20T07:16:41.082Z,96803.36
2018-07-20T07:19:10.524Z,96803.50
2018-07-20T07:21:41.002Z,96807.85
2018-07-20T07:24:10.640Z,96802.52
2018-07-20T07:26:40.726Z,96792.83
2018-07-20T07:29:10.540Z,96792.31
2018-07-20T07:31:40.650Z,96793.80
2018-07-20T07:34:10.598Z,96795.09
2018-07-20T07:36:40.865Z,96796.00
2018-07-20T07:39:12.032Z,96795.99
2018-07-20T07:41:45.140Z,96797.84
2018-07-20T07:44:14.739Z,96803.10
2018-07-20T07:46:43.815Z,96804.45
2018-07-20T07:49:12.890Z,96790.38
2018-07-20T07:51:42.421Z,96796.44
2018-07-20T07:54:11.496Z,96790.56
2018-07-20T07:56:41.021Z,96793.13
2018-07-20T07:59:10.943Z,96785.33
2018-07-20T08:01:41.269Z,96787.51
2018-07-20T08:04:11.394Z,96778.63
2018-07-20T08:06:41.096Z,96781.23
2018-07-20T08:09:13.239Z,96773.70
2018-07-20T08:11:43.015Z,96778.38
2018-07-20T08:14:13.100Z,96779.03
2018-07-20T08:16:42.310Z,96774.82
2018-07-20T08:19:11.508Z,96776.26
2018-07-20T08:21:41.263Z,96772.28
2018-07-20T08:24:11.330Z,96776.76
2018-07-20T08:26:41.646Z,96768.17
2018-07-20T08:29:11.558Z,96766.47
2018-07-20T08:31:41.326Z,96766.59
2018-07-20T08:34:11.448Z,96766.09
2018-07-20T08:36:41.713Z,96762.22
2018-07-20T08:39:12.051Z,96759.52
2018-07-20T08:41:41.473Z,96755.01
2018-07-20T08:44:11.859Z,96758.48
2018-07-20T08:46:41.498Z,96751.98
2018-07-20T08:49:11.547Z,96760.00
2018-07-20T08:51:41.547Z,96760.19
2018-07-20T08:54:11.716Z,96757.91
2018-07-20T08:56:41.520Z,96748.02
2018-07-20T08:59:11.602Z,96749.59
2018-07-20T09:01:41.772Z,96749.59
2018-07-20T09:04:11.913Z,96750.89
2018-07-20T09:06:41.877Z,96746.64
2018-07-20T09:09:11.762Z,96753.92
2018-07-20T09:11:41.841Z,96748.37
2018-07-20T09:14:11.709Z,96747.53
2018-07-20T09:16:41.843Z,96749.13
2018-07-20T09:19:11.761Z,96753.30
2018-07-20T09:21:42.118Z,96747.03
2018-07-20T09:24:12.227Z,96746.27
2018-07-20T09:26:42.134Z,96750.30
2018-07-20T09:29:12.044Z,96745.71
2018-07-20T09:31:42.423Z,96747.66
2018-07-20T09:34:12.323Z,96746.65
2018-07-20T09:36:42.130Z,96744.50
2018-07-20T09:39:12.377Z,96751.39
2018-07-20T09:41:42.239Z,96745.71
2018-07-20T09:44:11.971Z,96748.98
2018-07-20T09:46:42.120Z,96738.02
2018-07-20T09:49:12.213Z,96740.48
2018-07-20T09:51:41.336Z,96754.39
2018-07-20T09:54:10.416Z,96740.55
2018-07-20T09:56:39.474Z,96744.41
2018-07-20T09:59:08.588Z,96746.34
2018-07-20T10:01:37.652Z,96749.09
2018-07-20T10:04:06.805Z,96748.45
2018-07-20T10:06:36.411Z,96743.95
2018-07-20T10:09:08.906Z,96742.28
2018-07-20T10:11:37.980Z,96742.50
2018-07-20T10:14:07.242Z,96741.97
2018-07-20T10:16:36.289Z,96738.31
2018-07-20T10:19:05.639Z,96739.06
2018-07-20T10:21:34.745Z,96736.65
2018-07-20T10:24:03.914Z,96734.95
2018-07-20T10:26:32.955Z,96747.08
2018-07-20T10:29:02.070Z,96727.89
2018-07-20T10:31:31.124Z,96733.30
2018-07-20T10:34:00.208Z,96737.86
2018-07-20T10:36:29.294Z,96731.05
2018-07-20T10:38:58.379Z,96735.16
2018-07-20T10:41:27.495Z,96737.41
2018-07-20T10:43:56.556Z,96726.95
2018-07-20T10:46:25.643Z,96731.15
2018-07-20T10:48:54.664Z,96725.64
2018-07-20T10:51:25.148Z,96720.62
2018-07-20T10:53:54.209Z,96720.62
2018-07-20T10:56:23.311Z,96725.09
2018-07-20T10:58:52.625Z,96720.07
2018-07-20T11:01:21.757Z,96712.61
2018-07-20T11:03:50.800Z,96711.50
2018-07-20T11:06:19.898Z,96706.24
2018-07-20T11:08:48.990Z,96704.91
2018-07-20T11:11:18.036Z,96696.70
2018-07-20T11:13:47.176Z,96686.80
2018-07-20T11:16:16.228Z,96689.23
2018-07-20T11:18:45.289Z,96681.61
2018-07-20T11:21:14.416Z,96683.63
2018-07-20T11:23:43.456Z,96677.87
2018-07-20T11:26:13.095Z,96669.80
2018-07-20T11:28:43.281Z,96669.30
2018-07-20T11:31:13.206Z,96670.55
2018-07-20T11:33:43.317Z,96667.55
2018-07-20T11:36:13.286Z,96664.55
2018-07-20T11:38:43.385Z,96660.38
2018-07-20T11:41:13.384Z,96656.11
2018-07-20T11:43:43.570Z,96656.54
2018-07-20T11:46:13.388Z,96655.02
2018-07-20T11:48:43.451Z,96647.01
2018-07-20T11:51:13.319Z,96645.84
2018-07-20T11:53:43.314Z,96645.79
2018-07-20T11:56:12.391Z,96642.22
2018-07-20T11:58:41.456Z,96633.55
2018-07-20T12:01:10.762Z,96629.38
2018-07-20T12:03:39.849Z,96626.55
2018-07-20T12:06:08.969Z,96627.19
2018-07-20T12:08:38.062Z,96624.63
2018-07-20T12:11:07.275Z,96626.05
2018-07-20T12:13:36.374Z,96623.44
2018-07-20T12:16:05.671Z,96623.77
2018-07-20T12:18:34.730Z,96621.02
2018-07-20T12:21:04.361Z,96618.33
2018-07-20T12:23:34.611Z,96617.15
2018-07-20T12:26:04.022Z,96612.47
2018-07-20T12:28:33.213Z,96610.39
2018-07-20T12:31:02.290Z,96612.90
2018-07-20T12:33:31.401Z,96611.31
2018-07-20T12:36:00.807Z,96613.94
2018-07-20T12:38:30.026Z,96610.45
2018-07-20T12:40:59.347Z,96614.85
2018-07-20T12:43:28.756Z,96607.63
2018-07-20T12:45:58.009Z,96609.05
2018-07-20T12:48:27.227Z,96609.70
2018-07-20T12:50:56.692Z,96602.52
2018-07-20T12:53:25.790Z,96597.94
2018-07-20T12:55:55.306Z,96602.56
2018-07-20T12:58:24.448Z,96597.98
2018-07-20T13:00:53.898Z,96591.98
2018-07-20T13:03:22.995Z,96595.73
2018-07-20T13:05:52.550Z,96593.44
2018-07-20T13:08:21.616Z,96588.13
2018-07-20T13:10:50.711Z,96586.38
2018-07-20T13:13:20.182Z,96582.05
2018-07-20T13:15:49.284Z,96586.48
2018-07-20T13:18:18.371Z,96578.75
2018-07-20T13:20:47.441Z,96579.20
2018-07-20T13:23:16.649Z,96567.22
2018-07-20T13:25:46.154Z,96570.13
2018-07-20T13:28:15.244Z,96564.90
2018-07-20T13:30:44.355Z,96569.25
2018-07-20T13:33:14.322Z,96570.76
2018-07-20T13:35:43.423Z,96560.67
2018-07-20T13:38:12.520Z,96557.05
2018-07-20T13:40:41.981Z,96557.63
2018-07-20T13:43:11.091Z,96560.45
2018-07-20T13:45:40.172Z,96562.30
2018-07-20T13:48:09.274Z,96564.05
2018-07-20T13:50:38.338Z,96562.70
2018-07-20T13:53:07.463Z,96559.84
2018-07-20T13:55:36.517Z,96548.66
2018-07-20T13:58:05.828Z,96547.84
2018-07-20T14:00:34.909Z,96543.64
2018-07-20T14:03:04.040Z,96555.28
2018-07-20T14:05:33.095Z,96555.97
2018-07-20T14:08:02.278Z,96553.80
2018-07-20T14:10:31.578Z,96553.38
2018-07-20T14:13:00.653Z,96547.47
2018-07-20T14:15:29.755Z,96535.90
2018-07-20T14:17:58.875Z,96537.05
2018-07-20T14:20:28.012Z,96539.83
2018-07-20T14:22:57.109Z,96533.47
2018-07-20T14:25:26.195Z,96525.05
2018-07-20T14:27:55.351Z,96528.05
2018-07-20T14:30:24.487Z,96525.81
2018-07-20T14:32:53.542Z,96527.59
2018-07-20T14:35:22.657Z,96526.20
2018-07-20T14:37:51.721Z,96521.28
2018-07-20T14:40:20.811Z,96521.24
2018-07-20T14:42:49.993Z,96514.91
2018-07-20T14:45:19.093Z,96513.97
2018-07-20T14:47:48.829Z,96521.11
2018-07-20T14:50:17.948Z,96517.20
2018-07-20T14:52:47.057Z,96513.78
2018-07-20T14:55:16.147Z,96506.31
2018-07-20T14:57:45.248Z,96503.70
2018-07-20T15:00:21.966Z,96504.76
2018-07-20T15:02:51.035Z,96503.86
2018-07-20T15:05:20.193Z,96494.85
2018-07-20T15:07:49.296Z,96498.02
2018-07-20T15:10:18.399Z,96500.14
2018-07-20T15:12:47.471Z,96493.83
2018-07-20T15:15:16.565Z,96497.48
2018-07-20T15:17:45.640Z,96495.66
2018-07-20T15:20:15.454Z,96492.25
2018-07-20T15:22:45.573Z,96484.09
2018-07-20T15:25:16.138Z,96484.20
2018-07-20T15:27:45.612Z,96480.14
2018-07-20T15:30:15.774Z,96478.96
2018-07-20T15:32:45.676Z,96474.18
2018-07-20T15:35:15.618Z,96468.81
2018-07-20T15:37:45.698Z,96464.78
2018-07-20T15:40:15.827Z,96457.14
2018-07-20T15:42:45.728Z,96458.39
2018-07-20T15:45:15.892Z,96457.97
2018-07-20T15:47:45.727Z,96451.11
2018-07-20T15:50:15.966Z,96449.53
2018-07-20T15:55:15.807Z,96445.17
2018-07-20T15:57:45.892Z,96447.05
2018-07-20T16:00:16.151Z,96455.83
2018-07-20T16:02:45.920Z,96449.89
2018-07-20T16:05:15.946Z,96448.20
2018-07-20T16:07:45.048Z,96447.72
2018-07-20T16:10:14.178Z,96442.30
2018-07-20T16:12:43.241Z,96446.11
2018-07-20T16:15:12.333Z,96451.25
2018-07-20T16:17:41.413Z,96448.30
2018-07-20T16:20:10.512Z,96439.83
2018-07-20T16:22:39.601Z,96431.86
2018-07-20T16:25:08.647Z,96434.92
2018-07-20T16:27:37.708Z,96441.05
2018-07-20T16:30:06.811Z,96446.42
2018-07-20T16:32:35.909Z,96445.23
2018-07-20T16:35:04.994Z,96441.99
2018-07-20T16:37:34.109Z,96436.00
2018-07-20T16:40:03.209Z,96441.64
2018-07-20T16:42:32.328Z,96435.75
2018-07-20T16:45:01.450Z,96438.50
2018-07-20T16:47:30.535Z,96451.68
2018-07-20T16:49:59.719Z,96450.25
2018-07-20T16:52:28.985Z,96447.14
2018-07-20T16:54:58.097Z,96450.52
2018-07-20T16:57:27.183Z,96447.05
2018-07-20T16:59:56.256Z,96449.74
2018-07-20T17:02:25.304Z,96449.58
2018-07-20T17:04:54.647Z,96454.56
2018-07-20T17:07:23.721Z,96451.63
2018-07-20T17:09:52.874Z,96452.20
2018-07-20T17:12:21.940Z,96456.02
2018-07-20T17:14:51.006Z,96455.14
2018-07-20T17:17:20.063Z,96454.36
2018-07-20T17:19:49.146Z,96459.55
2018-07-20T17:22:18.218Z,96451.91
2018-07-20T17:24:47.328Z,96452.37
2018-07-20T17:27:16.933Z,96457.79
2018-07-20T17:29:46.804Z,96461.14
2018-07-20T17:32:16.843Z,96458.32
2018-07-20T17:34:47.032Z,96461.08
2018-07-20T17:37:16.941Z,96457.45
2018-07-20T17:39:46.997Z,96458.31
2018-07-20T17:42:16.953Z,96455.38
2018-07-20T17:44:47.079Z,96457.44
2018-07-20T17:47:17.190Z,96457.27
2018-07-20T17:49:47.475Z,96452.84
2018-07-20T17:52:17.251Z,96453.36
2018-07-20T18:14:06.512Z,96450.34
2018-07-20T18:16:36.244Z,96451.64
2018-07-20T18:19:05.610Z,96451.28
2018-07-20T18:21:34.818Z,96452.62
2018-07-20T18:24:03.929Z,96457.29
2018-07-20T18:26:33.005Z,96457.67
2018-07-20T18:29:02.141Z,96459.00
2018-07-20T18:31:31.337Z,96458.42
2018-07-20T18:34:00.507Z,96461.05
2018-07-20T18:39:10.799Z,96469.08
2018-07-20T18:41:40.796Z,96463.33
2018-07-20T18:44:10.113Z,96465.19
2018-07-20T18:46:39.336Z,96465.56
2018-07-20T18:49:08.492Z,96459.78
2018-07-20T18:51:37.670Z,96466.39
2018-07-20T18:54:06.818Z,96463.48
2018-07-20T18:56:36.003Z,96461.98
2018-07-20T18:59:05.094Z,96466.81
2018-07-20T19:01:34.218Z,96472.52
2018-07-20T19:04:03.293Z,96471.20
2018-07-20T19:06:32.373Z,96467.73
2018-07-20T19:09:01.550Z,96461.48
2018-07-20T19:11:30.855Z,96463.70
2018-07-20T19:13:59.979Z,96463.14
2018-07-20T19:16:29.260Z,96465.53
2018-07-20T19:18:58.742Z,96467.91
2018-07-20T19:21:27.812Z,96463.91
2018-07-20T19:23:57.035Z,96466.56
2018-07-20T19:26:26.121Z,96461.06
2018-07-20T19:28:55.214Z,96456.98
2018-07-20T19:31:24.349Z,96459.80
2018-07-20T19:33:53.442Z,96458.28
2018-07-20T19:36:22.600Z,96453.66
2018-07-20T19:38:51.755Z,96451.00
2018-07-20T19:41:20.985Z,96450.42
2018-07-20T19:43:53.063Z,96448.95
2018-07-20T19:46:22.250Z,96456.30
2018-07-20T19:48:51.653Z,96453.66
2018-07-20T19:51:20.772Z,96451.03
2018-07-20T19:53:49.885Z,96455.63
2018-07-20T19:56:18.981Z,96462.97
2018-07-20T19:58:48.128Z,96467.66
2018-07-20T20:01:17.436Z,96468.79
2018-07-20T20:03:46.533Z,96467.13
2018-07-20T20:06:15.693Z,96467.27
2018-07-20T20:08:44.888Z,96467.44
2018-07-20T20:11:14.045Z,96457.23
2018-07-20T20:13:43.159Z,96466.09
2018-07-20T20:16:12.520Z,96468.09
2018-07-20T20:18:41.751Z,96468.70
2018-07-20T20:21:10.849Z,96473.95
2018-07-20T20:23:40.267Z,96472.45
2018-07-20T20:26:09.371Z,96473.20
2018-07-20T20:28:38.485Z,96474.84
2018-07-20T20:31:07.623Z,96477.28
2018-07-20T20:33:36.781Z,96480.48
2018-07-20T20:36:05.919Z,96478.43
2018-07-20T20:38:35.037Z,96481.19
2018-07-20T20:41:04.137Z,96482.78
2018-07-20T20:43:33.336Z,96480.63
2018-07-20T20:46:02.452Z,96482.46
2018-07-20T20:48:31.606Z,96484.42
2018-07-20T20:51:00.780Z,96485.34
2018-07-20T20:53:29.861Z,96480.86
2018-07-20T20:55:59.001Z,96479.86
2018-07-20T20:58:28.163Z,96483.27
2018-07-20T21:00:57.508Z,96479.91
2018-07-20T21:03:26.605Z,96479.53
2018-07-20T21:05:55.750Z,96479.98
2018-07-20T21:08:24.893Z,96482.08
2018-07-20T21:10:54.037Z,96480.70
2018-07-20T21:13:23.151Z,96490.55
2018-07-20T21:15:52.264Z,96502.10
2018-07-20T21:18:21.393Z,96493.84
2018-07-20T21:20:51.157Z,96505.98
2018-07-20T21:23:21.073Z,96509.20
2018-07-20T21:25:51.134Z,96509.80
2018-07-20T21:28:21.141Z,96514.12
2018-07-20T21:30:51.176Z,96518.52
2018-07-20T21:33:21.133Z,96515.94
2018-07-20T21:35:51.153Z,96506.36
2018-07-20T21:38:20.280Z,96504.41
2018-07-20T21:40:49.361Z,96509.83
2018-07-20T21:43:18.499Z,96510.98
2018-07-20T21:45:47.586Z,96508.91
2018-07-20T21:48:16.730Z,96516.23
2018-07-20T21:50:45.802Z,96511.90
2018-07-20T21:53:14.889Z,96508.91
2018-07-20T21:55:44.037Z,96509.31
2018-07-20T21:58:13.101Z,96517.84
2018-07-20T22:00:42.370Z,96521.33
2018-07-20T22:03:11.501Z,96517.97
2018-07-20T22:05:40.619Z,96515.52
2018-07-20T22:08:09.753Z,96504.03
2018-07-20T22:10:38.845Z,96509.33
2018-07-20T22:13:07.926Z,96507.25
2018-07-20T22:15:37.042Z,96502.23
2018-07-20T22:18:06.230Z,96499.79
2018-07-20T22:20:35.338Z,96501.60
2018-07-20T22:23:04.437Z,96497.35
2018-07-20T22:25:33.527Z,96493.84
2018-07-20T22:28:02.631Z,96498.17
2018-07-20T22:30:31.908Z,96495.66
2018-07-20T22:33:00.962Z,96498.17
2018-07-20T22:35:30.080Z,96496.06
2018-07-20T22:37:59.203Z,96490.62
2018-07-20T22:40:28.294Z,96497.47
2018-07-20T22:42:57.430Z,96497.09
2018-07-20T22:45:26.517Z,96497.47
2018-07-20T22:47:55.636Z,96498.39
2018-07-20T22:50:24.753Z,96493.99
2018-07-20T22:52:54.005Z,96487.64
2018-07-20T22:55:23.079Z,96490.75
2018-07-20T22:57:52.161Z,96490.89
2018-07-20T23:00:22.181Z,96488.56
2018-07-20T23:02:52.126Z,96487.79
2018-07-20T23:05:22.197Z,96487.90
2018-07-20T23:07:52.387Z,96478.55
2018-07-20T23:10:22.570Z,96479.52
2018-07-20T23:12:52.273Z,96477.78
2018-07-20T23:15:22.616Z,96483.53
2018-07-20T23:17:52.163Z,96479.25
2018-07-20T23:20:22.650Z,96478.88
2018-07-20T23:22:52.202Z,96476.81
2018-07-20T23:25:22.336Z,96486.78
2018-07-20T23:27:52.265Z,96489.44
2018-07-20T23:30:22.563Z,96490.77
2018-07-20T23:32:52.500Z,96499.18
2018-07-20T23:35:22.428Z,96498.91
2018-07-20T23:37:52.715Z,96501.20
2018-07-20T23:40:22.643Z,96493.39
2018-07-20T23:42:52.572Z,96493.64
2018-07-20T23:45:22.540Z,96491.71
2018-07-20T23:47:52.654Z,96495.83
2018-07-20T23:50:22.693Z,96492.53
2018-07-20T23:52:53.010Z,96491.31
2018-07-20T23:55:22.843Z,96492.23
2018-07-20T23:57:52.823Z,96498.21
